sensor_id;sensor_type;location;lat;lon;timestamp;pressure;altitude;pressure_sealevel;temperature;humidity
74633;BME280;63139;52.018;8.552;2022-12-29T00:00:15;99210.69;;;10.19;80.08
74633;BME280;63139;52.018;8.552;2022-12-29T00:02:43;99220.47;;;10.18;80.27
74633;BME280;63139;52.018;8.552;2022-12-29T00:05:11;99221.28;;;10.19;80.38
74633;BME280;63139;52.018;8.552;2022-12-29T00:07:39;99213.16;;;10.20;80.42
74633;BME280;63139;52.018;8.552;2022-12-29T00:10:07;99206.22;;;10.19;80.65
74633;BME280;63139;52.018;8.552;2022-12-29T00:12:35;99208.06;;;10.19;80.94
74633;BME280;63139;52.018;8.552;2022-12-29T00:15:21;99206.22;;;10.19;80.93
74633;BME280;63139;52.018;8.552;2022-12-29T00:18:04;99215.59;;;10.22;80.83
74633;BME280;63139;52.018;8.552;2022-12-29T00:20:33;99202.56;;;10.20;81.04
74633;BME280;63139;52.018;8.552;2022-12-29T00:23:33;99196.47;;;10.20;81.15
74633;BME280;63139;52.018;8.552;2022-12-29T00:26:19;99187.72;;;10.19;80.98
74633;BME280;63139;52.018;8.552;2022-12-29T00:29:04;99183.25;;;10.20;81.23
74633;BME280;63139;52.018;8.552;2022-12-29T00:31:51;99178.75;;;10.20;80.85
74633;BME280;63139;52.018;8.552;2022-12-29T00:34:36;99170.84;;;10.20;81.05
74633;BME280;63139;52.018;8.552;2022-12-29T00:37:21;99161.06;;;10.21;81.12
74633;BME280;63139;52.018;8.552;2022-12-29T00:40:09;99166.16;;;10.22;81.09
74633;BME280;63139;52.018;8.552;2022-12-29T00:42:54;99168.19;;;10.20;81.49
74633;BME280;63139;52.018;8.552;2022-12-29T00:45:40;99160.63;;;10.17;81.30
74633;BME280;63139;52.018;8.552;2022-12-29T00:48:09;99159.63;;;10.18;81.29
74633;BME280;63139;52.018;8.552;2022-12-29T00:50:37;99169.38;;;10.18;81.24
74633;BME280;63139;52.018;8.552;2022-12-29T00:53:03;99158.16;;;10.16;81.39
74633;BME280;63139;52.018;8.552;2022-12-29T00:55:31;99149.22;;;10.17;81.36
74633;BME280;63139;52.018;8.552;2022-12-29T00:58:03;99144.13;;;10.15;81.43
74633;BME280;63139;52.018;8.552;2022-12-29T01:00:31;99158.56;;;10.12;81.39
74633;BME280;63139;52.018;8.552;2022-12-29T01:02:59;99157.13;;;10.10;81.53
74633;BME280;63139;52.018;8.552;2022-12-29T01:05:29;99146.31;;;10.05;81.68
74633;BME280;63139;52.018;8.552;2022-12-29T01:07:56;99137.16;;;10.01;81.87
74633;BME280;63139;52.018;8.552;2022-12-29T01:10:24;99138.38;;;9.98;81.86
74633;BME280;63139;52.018;8.552;2022-12-29T01:12:52;99131.44;;;9.91;82.20
74633;BME280;63139;52.018;8.552;2022-12-29T01:15:19;99143.81;;;9.84;82.28
74633;BME280;63139;52.018;8.552;2022-12-29T01:17:47;99135.84;;;9.77;82.71
74633;BME280;63139;52.018;8.552;2022-12-29T01:20:15;99133.97;;;9.71;82.52
74633;BME280;63139;52.018;8.552;2022-12-29T01:22:45;99127.81;;;9.64;82.70
74633;BME280;63139;52.018;8.552;2022-12-29T01:25:13;99129.06;;;9.61;83.43
74633;BME280;63139;52.018;8.552;2022-12-29T01:27:41;99123.34;;;9.64;83.73
74633;BME280;63139;52.018;8.552;2022-12-29T01:30:09;99123.38;;;9.71;83.54
74633;BME280;63139;52.018;8.552;2022-12-29T01:32:38;99124.84;;;9.80;83.48
74633;BME280;63139;52.018;8.552;2022-12-29T01:35:06;99122.06;;;9.88;83.94
74633;BME280;63139;52.018;8.552;2022-12-29T01:37:34;99108.84;;;9.95;83.59
74633;BME280;63139;52.018;8.552;2022-12-29T01:40:04;99113.34;;;10.01;84.03
74633;BME280;63139;52.018;8.552;2022-12-29T01:42:32;99112.97;;;10.04;84.20
74633;BME280;63139;52.018;8.552;2022-12-29T01:45:02;99106.47;;;10.06;84.49
74633;BME280;63139;52.018;8.552;2022-12-29T01:47:34;99110.97;;;10.12;84.42
74633;BME280;63139;52.018;8.552;2022-12-29T01:50:07;99100.19;;;10.14;84.24
74633;BME280;63139;52.018;8.552;2022-12-29T01:52:40;99099.81;;;10.17;83.78
74633;BME280;63139;52.018;8.552;2022-12-29T01:55:11;99104.91;;;10.19;83.64
74633;BME280;63139;52.018;8.552;2022-12-29T01:57:44;99104.50;;;10.22;83.52
74633;BME280;63139;52.018;8.552;2022-12-29T02:00:14;99114.06;;;10.23;83.43
74633;BME280;63139;52.018;8.552;2022-12-29T02:02:50;99095.34;;;10.24;83.84
74633;BME280;63139;52.018;8.552;2022-12-29T02:05:24;99098.63;;;10.26;83.79
74633;BME280;63139;52.018;8.552;2022-12-29T02:07:53;99099.81;;;10.30;84.37
74633;BME280;63139;52.018;8.552;2022-12-29T02:10:26;99111.84;;;10.33;85.00
74633;BME280;63139;52.018;8.552;2022-12-29T02:12:56;99113.47;;;10.34;85.17
74633;BME280;63139;52.018;8.552;2022-12-29T02:15:34;99106.75;;;10.31;85.99
74633;BME280;63139;52.018;8.552;2022-12-29T02:18:14;99105.72;;;10.26;86.91
74633;BME280;63139;52.018;8.552;2022-12-29T02:33:30;99079.78;;;10.01;88.02
74633;BME280;63139;52.018;8.552;2022-12-29T02:36:07;99086.31;;;9.99;87.26
74633;BME280;63139;52.018;8.552;2022-12-29T02:38:54;99081.63;;;10.01;87.54
74633;BME280;63139;52.018;8.552;2022-12-29T02:41:31;99093.44;;;10.05;87.48
74633;BME280;63139;52.018;8.552;2022-12-29T02:44:04;99093.84;;;10.08;87.50
74633;BME280;63139;52.018;8.552;2022-12-29T02:46:37;99079.63;;;10.09;86.88
74633;BME280;63139;52.018;8.552;2022-12-29T02:49:15;99080.44;;;10.10;87.14
74633;BME280;63139;52.018;8.552;2022-12-29T02:51:51;99070.47;;;10.12;86.93
74633;BME280;63139;52.018;8.552;2022-12-29T02:54:23;99072.50;;;10.10;86.60
74633;BME280;63139;52.018;8.552;2022-12-29T02:57:11;99063.97;;;10.15;86.58
74633;BME280;63139;52.018;8.552;2022-12-29T02:59:40;99054.22;;;10.15;86.08
74633;BME280;63139;52.018;8.552;2022-12-29T03:02:29;99054.47;;;10.20;86.19
74633;BME280;63139;52.018;8.552;2022-12-29T03:05:24;99057.72;;;10.22;85.98
74633;BME280;63139;52.018;8.552;2022-12-29T03:08:02;99058.13;;;10.26;85.39
74633;BME280;63139;52.018;8.552;2022-12-29T03:10:38;99054.28;;;10.28;85.29
74633;BME280;63139;52.018;8.552;2022-12-29T03:13:18;99051.00;;;10.33;85.21
74633;BME280;63139;52.018;8.552;2022-12-29T03:16:16;99040.22;;;10.34;84.88
74633;BME280;63139;52.018;8.552;2022-12-29T03:18:55;99051.00;;;10.39;84.60
74633;BME280;63139;52.018;8.552;2022-12-29T03:21:31;99046.34;;;10.41;84.63
74633;BME280;63139;52.018;8.552;2022-12-29T03:24:21;99047.56;;;10.45;84.42
74633;BME280;63139;52.018;8.552;2022-12-29T03:26:51;99058.38;;;10.50;84.16
74633;BME280;63139;52.018;8.552;2022-12-29T03:29:20;99051.81;;;10.53;83.89
74633;BME280;63139;52.018;8.552;2022-12-29T03:31:49;99041.88;;;10.55;84.14
74633;BME280;63139;52.018;8.552;2022-12-29T03:34:20;99048.78;;;10.56;83.65
74633;BME280;63139;52.018;8.552;2022-12-29T03:36:53;99053.25;;;10.62;83.41
74633;BME280;63139;52.018;8.552;2022-12-29T03:39:24;99039.00;;;10.63;83.36
74633;BME280;63139;52.018;8.552;2022-12-29T03:41:56;99053.06;;;10.64;83.04
74633;BME280;63139;52.018;8.552;2022-12-29T03:44:32;99030.88;;;10.65;82.58
74633;BME280;63139;52.018;8.552;2022-12-29T03:47:01;99025.16;;;10.68;82.55
74633;BME280;63139;52.018;8.552;2022-12-29T03:49:29;99021.09;;;10.65;82.51
74633;BME280;63139;52.018;8.552;2022-12-29T03:51:58;99018.03;;;10.68;82.35
74633;BME280;63139;52.018;8.552;2022-12-29T03:54:27;99022.50;;;10.68;82.08
74633;BME280;63139;52.018;8.552;2022-12-29T03:56:55;99022.31;;;10.69;81.68
74633;BME280;63139;52.018;8.552;2022-12-29T03:59:34;99028.41;;;10.70;80.59
74633;BME280;63139;52.018;8.552;2022-12-29T04:02:02;99018.03;;;10.75;81.71
74633;BME280;63139;52.018;8.552;2022-12-29T04:04:30;99029.22;;;10.77;81.42
74633;BME280;63139;52.018;8.552;2022-12-29T04:06:59;99018.44;;;10.78;80.93
74633;BME280;63139;52.018;8.552;2022-12-29T04:09:27;99022.53;;;10.81;80.65
74633;BME280;63139;52.018;8.552;2022-12-29T04:11:56;99019.66;;;10.82;80.77
74633;BME280;63139;52.018;8.552;2022-12-29T04:14:24;99016.59;;;10.85;80.44
74633;BME280;63139;52.018;8.552;2022-12-29T04:16:52;99018.03;;;10.88;80.11
74633;BME280;63139;52.018;8.552;2022-12-29T04:19:20;99023.31;;;10.88;79.77
74633;BME280;63139;52.018;8.552;2022-12-29T04:21:49;99029.22;;;10.90;79.43
74633;BME280;63139;52.018;8.552;2022-12-29T04:24:19;99031.47;;;10.93;79.77
74633;BME280;63139;52.018;8.552;2022-12-29T04:26:49;99021.88;;;10.92;79.88
74633;BME280;63139;52.018;8.552;2022-12-29T04:29:39;99022.31;;;10.89;79.86
74633;BME280;63139;52.018;8.552;2022-12-29T04:32:28;99021.50;;;10.88;80.00
74633;BME280;63139;52.018;8.552;2022-12-29T04:34:56;99013.31;;;10.90;79.02
74633;BME280;63139;52.018;8.552;2022-12-29T04:37:24;99021.06;;;10.92;79.61
74633;BME280;63139;52.018;8.552;2022-12-29T04:39:53;99017.19;;;10.94;79.81
74633;BME280;63139;52.018;8.552;2022-12-29T04:42:21;99018.63;;;10.97;79.30
74633;BME280;63139;52.018;8.552;2022-12-29T04:44:50;99015.97;;;10.97;79.53
74633;BME280;63139;52.018;8.552;2022-12-29T04:47:33;99000.09;;;10.97;79.24
74633;BME280;63139;52.018;8.552;2022-12-29T04:50:19;99011.47;;;10.97;79.74
74633;BME280;63139;52.018;8.552;2022-12-29T04:52:54;99010.06;;;10.95;79.90
74633;BME280;63139;52.018;8.552;2022-12-29T04:55:23;99000.50;;;10.94;80.17
74633;BME280;63139;52.018;8.552;2022-12-29T04:57:51;98996.22;;;10.93;79.62
74633;BME280;63139;52.018;8.552;2022-12-29T05:00:19;98987.66;;;10.90;80.47
74633;BME280;63139;52.018;8.552;2022-12-29T05:02:47;98996.03;;;10.87;80.35
74633;BME280;63139;52.018;8.552;2022-12-29T05:05:15;98997.88;;;10.87;80.41
74633;BME280;63139;52.018;8.552;2022-12-29T05:07:47;99001.53;;;10.86;80.73
74633;BME280;63139;52.018;8.552;2022-12-29T05:10:15;98995.41;;;10.85;80.73
74633;BME280;63139;52.018;8.552;2022-12-29T05:12:45;98996.44;;;10.84;80.63
74633;BME280;63139;52.018;8.552;2022-12-29T05:15:13;98993.16;;;10.82;80.58
74633;BME280;63139;52.018;8.552;2022-12-29T05:17:42;98980.75;;;10.83;80.52
74633;BME280;63139;52.018;8.552;2022-12-29T05:20:11;98979.13;;;10.82;80.18
74633;BME280;63139;52.018;8.552;2022-12-29T05:22:38;98984.41;;;10.82;80.51
74633;BME280;63139;52.018;8.552;2022-12-29T05:25:08;98987.06;;;10.82;80.62
74633;BME280;63139;52.018;8.552;2022-12-29T05:27:57;98980.53;;;10.84;80.94
74633;BME280;63139;52.018;8.552;2022-12-29T05:30:39;98976.06;;;10.85;80.88
74633;BME280;63139;52.018;8.552;2022-12-29T05:33:07;98971.19;;;10.82;81.02
74633;BME280;63139;52.018;8.552;2022-12-29T05:35:38;98957.16;;;10.81;81.02
74633;BME280;63139;52.018;8.552;2022-12-29T05:38:06;98964.28;;;10.81;80.85
74633;BME280;63139;52.018;8.552;2022-12-29T05:40:34;98946.97;;;10.78;81.04
74633;BME280;63139;52.018;8.552;2022-12-29T05:43:07;98951.44;;;10.78;80.83
74633;BME280;63139;52.018;8.552;2022-12-29T05:45:43;98956.53;;;10.79;80.74
74633;BME280;63139;52.018;8.552;2022-12-29T05:48:43;98945.13;;;10.79;80.71
74633;BME280;63139;52.018;8.552;2022-12-29T05:51:24;98946.56;;;10.81;80.71
74633;BME280;63139;52.018;8.552;2022-12-29T05:53:53;98945.50;;;10.82;80.29
74633;BME280;63139;52.018;8.552;2022-12-29T05:56:21;98946.94;;;10.85;80.34
74633;BME280;63139;52.018;8.552;2022-12-29T05:58:57;98952.84;;;10.87;80.39
74633;BME280;63139;52.018;8.552;2022-12-29T06:01:25;98948.38;;;10.87;80.37
74633;BME280;63139;52.018;8.552;2022-12-29T06:03:53;98956.91;;;10.89;80.28
74633;BME280;63139;52.018;8.552;2022-12-29T06:06:21;98951.41;;;10.91;80.08
74633;BME280;63139;52.018;8.552;2022-12-29T06:08:49;98953.84;;;10.93;79.68
74633;BME280;63139;52.018;8.552;2022-12-29T06:11:17;98957.13;;;10.95;79.88
74633;BME280;63139;52.018;8.552;2022-12-29T06:13:51;98951.19;;;10.99;79.39
74633;BME280;63139;52.018;8.552;2022-12-29T06:16:21;98948.34;;;11.01;79.27
74633;BME280;63139;52.018;8.552;2022-12-29T06:18:52;98948.94;;;11.03;79.18
74633;BME280;63139;52.018;8.552;2022-12-29T06:21:21;98947.69;;;11.05;79.05
74633;BME280;63139;52.018;8.552;2022-12-29T06:23:48;98955.22;;;11.08;79.16
74633;BME280;63139;52.018;8.552;2022-12-29T06:26:16;98950.56;;;11.10;78.95
74633;BME280;63139;52.018;8.552;2022-12-29T06:28:46;99001.69;;;11.11;77.99
74633;BME280;63139;52.018;8.552;2022-12-29T06:31:15;99027.94;;;11.12;77.86
74633;BME280;63139;52.018;8.552;2022-12-29T06:33:45;99056.69;;;11.09;79.00
74633;BME280;63139;52.018;8.552;2022-12-29T06:36:16;99057.72;;;11.01;80.32
74633;BME280;63139;52.018;8.552;2022-12-29T06:38:43;99052.03;;;10.91;80.21
74633;BME280;63139;52.018;8.552;2022-12-29T06:41:11;99028.41;;;10.76;80.21
74633;BME280;63139;52.018;8.552;2022-12-29T06:43:57;99058.97;;;10.59;80.81
74633;BME280;63139;52.018;8.552;2022-12-29T06:46:48;99051.44;;;10.43;81.14
74633;BME280;63139;52.018;8.552;2022-12-29T06:49:18;99044.28;;;10.30;81.32
74633;BME280;63139;52.018;8.552;2022-12-29T06:51:46;99055.22;;;10.14;81.81
74633;BME280;63139;52.018;8.552;2022-12-29T06:54:14;99057.00;;;10.00;82.39
74633;BME280;63139;52.018;8.552;2022-12-29T06:56:42;99056.97;;;9.87;82.74
74633;BME280;63139;52.018;8.552;2022-12-29T06:59:10;99063.44;;;9.78;82.92
74633;BME280;63139;52.018;8.552;2022-12-29T07:01:37;99059.38;;;9.69;83.49
74633;BME280;63139;52.018;8.552;2022-12-29T07:04:05;99064.19;;;9.59;83.68
74633;BME280;63139;52.018;8.552;2022-12-29T07:06:34;99070.88;;;9.48;83.74
74633;BME280;63139;52.018;8.552;2022-12-29T07:09:02;99082.59;;;9.39;84.48
74633;BME280;63139;52.018;8.552;2022-12-29T07:11:30;99076.28;;;9.33;84.51
74633;BME280;63139;52.018;8.552;2022-12-29T07:13:58;99087.00;;;9.25;85.34
74633;BME280;63139;52.018;8.552;2022-12-29T07:16:27;99085.09;;;9.19;86.11
74633;BME280;63139;52.018;8.552;2022-12-29T07:18:56;99075.56;;;9.18;85.67
74633;BME280;63139;52.018;8.552;2022-12-29T07:21:25;99077.97;;;9.13;85.99
74633;BME280;63139;52.018;8.552;2022-12-29T07:23:55;99072.25;;;9.10;86.30
74633;BME280;63139;52.018;8.552;2022-12-29T07:26:22;99080.97;;;9.04;86.44
74633;BME280;63139;52.018;8.552;2022-12-29T07:28:50;99093.09;;;8.98;86.49
74633;BME280;63139;52.018;8.552;2022-12-29T07:31:20;99088.56;;;8.92;86.04
74633;BME280;63139;52.018;8.552;2022-12-29T07:33:48;99075.78;;;8.89;85.89
74633;BME280;63139;52.018;8.552;2022-12-29T07:36:16;99096.44;;;8.85;85.36
74633;BME280;63139;52.018;8.552;2022-12-29T07:38:44;99101.91;;;8.84;84.84
74633;BME280;63139;52.018;8.552;2022-12-29T07:41:13;99096.41;;;8.79;85.03
74633;BME280;63139;52.018;8.552;2022-12-29T07:43:41;99090.88;;;8.74;85.24
74633;BME280;63139;52.018;8.552;2022-12-29T07:46:41;99096.53;;;8.71;85.19
74633;BME280;63139;52.018;8.552;2022-12-29T07:49:22;99104.09;;;8.74;85.68
74633;BME280;63139;52.018;8.552;2022-12-29T07:51:50;99115.25;;;8.76;85.57
74633;BME280;63139;52.018;8.552;2022-12-29T07:54:17;99111.59;;;8.77;85.27
74633;BME280;63139;52.018;8.552;2022-12-29T07:56:47;99110.19;;;8.74;85.17
74633;BME280;63139;52.018;8.552;2022-12-29T07:59:14;99119.69;;;8.75;85.29
74633;BME280;63139;52.018;8.552;2022-12-29T08:01:42;99124.59;;;8.78;85.23
74633;BME280;63139;52.018;8.552;2022-12-29T08:04:10;99126.13;;;8.87;84.89
74633;BME280;63139;52.018;8.552;2022-12-29T08:06:38;99124.66;;;8.85;85.01
74633;BME280;63139;52.018;8.552;2022-12-29T08:09:06;99125.66;;;8.84;84.68
74633;BME280;63139;52.018;8.552;2022-12-29T08:11:46;99128.47;;;8.82;84.63
74633;BME280;63139;52.018;8.552;2022-12-29T08:14:14;99132.34;;;8.80;84.89
74633;BME280;63139;52.018;8.552;2022-12-29T08:16:42;99135.53;;;8.75;85.03
74633;BME280;63139;52.018;8.552;2022-12-29T08:19:10;99137.56;;;8.73;84.98
74633;BME280;63139;52.018;8.552;2022-12-29T08:21:38;99134.28;;;8.71;85.08
74633;BME280;63139;52.018;8.552;2022-12-29T08:24:06;99141.44;;;8.77;84.76
74633;BME280;63139;52.018;8.552;2022-12-29T08:26:35;99138.03;;;8.83;84.66
74633;BME280;63139;52.018;8.552;2022-12-29T08:29:04;99149.47;;;8.90;84.56
74633;BME280;63139;52.018;8.552;2022-12-29T08:31:32;99146.13;;;9.03;83.93
74633;BME280;63139;52.018;8.552;2022-12-29T08:34:00;99151.50;;;9.16;83.46
74633;BME280;63139;52.018;8.552;2022-12-29T08:36:29;99149.97;;;9.28;83.15
74633;BME280;63139;52.018;8.552;2022-12-29T08:38:57;99145.34;;;9.37;82.87
74633;BME280;63139;52.018;8.552;2022-12-29T08:41:25;99150.13;;;9.48;83.08
74633;BME280;63139;52.018;8.552;2022-12-29T08:43:53;99152.38;;;9.58;82.88
74633;BME280;63139;52.018;8.552;2022-12-29T08:46:22;99160.97;;;9.66;83.33
74633;BME280;63139;52.018;8.552;2022-12-29T08:48:50;99160.44;;;9.78;83.16
74633;BME280;63139;52.018;8.552;2022-12-29T08:51:18;99160.47;;;9.84;83.49
74633;BME280;63139;52.018;8.552;2022-12-29T08:53:50;99165.16;;;9.89;83.77
74633;BME280;63139;52.018;8.552;2022-12-29T08:56:18;99171.72;;;9.93;83.34
74633;BME280;63139;52.018;8.552;2022-12-29T08:58:50;99166.00;;;9.96;83.56
74633;BME280;63139;52.018;8.552;2022-12-29T09:01:18;99173.13;;;9.95;83.88
74633;BME280;63139;52.018;8.552;2022-12-29T09:03:48;99175.97;;;9.94;84.07
74633;BME280;63139;52.018;8.552;2022-12-29T09:06:38;99172.94;;;9.97;83.73
74633;BME280;63139;52.018;8.552;2022-12-29T09:09:06;99166.81;;;9.96;83.21
74633;BME280;63139;52.018;8.552;2022-12-29T09:11:34;99170.28;;;9.97;83.24
74633;BME280;63139;52.018;8.552;2022-12-29T09:14:02;99175.75;;;9.89;83.17
74633;BME280;63139;52.018;8.552;2022-12-29T09:16:30;99167.34;;;9.79;83.19
74633;BME280;63139;52.018;8.552;2022-12-29T09:18:59;99171.78;;;9.71;83.20
74633;BME280;63139;52.018;8.552;2022-12-29T09:21:27;99169.91;;;9.65;83.49
74633;BME280;63139;52.018;8.552;2022-12-29T09:23:54;99158.72;;;9.63;83.77
74633;BME280;63139;52.018;8.552;2022-12-29T09:26:22;99160.13;;;9.59;84.40
74633;BME280;63139;52.018;8.552;2022-12-29T09:28:50;99164.88;;;9.70;84.54
74633;BME280;63139;52.018;8.552;2022-12-29T09:31:17;99173.44;;;9.79;84.87
74633;BME280;63139;52.018;8.552;2022-12-29T09:33:45;99181.81;;;9.83;84.41
74633;BME280;63139;52.018;8.552;2022-12-29T09:36:14;99174.53;;;9.91;84.16
74633;BME280;63139;52.018;8.552;2022-12-29T09:38:42;99181.06;;;9.95;83.91
74633;BME280;63139;52.018;8.552;2022-12-29T09:41:14;99175.06;;;10.15;83.37
74633;BME280;63139;52.018;8.552;2022-12-29T09:43:56;99174.94;;;10.29;82.03
74633;BME280;63139;52.018;8.552;2022-12-29T09:46:28;99193.41;;;10.23;81.95
74633;BME280;63139;52.018;8.552;2022-12-29T09:49:06;99174.84;;;10.16;81.72
74633;BME280;63139;52.018;8.552;2022-12-29T09:51:38;99182.75;;;10.09;80.87
74633;BME280;63139;52.018;8.552;2022-12-29T09:54:21;99196.59;;;10.11;nan
74633;BME280;63139;52.018;8.552;2022-12-29T09:56:52;99184.19;;;10.12;79.07
74633;BME280;63139;52.018;8.552;2022-12-29T09:59:22;99190.69;;;10.16;79.56
74633;BME280;63139;52.018;8.552;2022-12-29T10:02:01;99184.69;;;10.22;79.78
74633;BME280;63139;52.018;8.552;2022-12-29T10:04:32;99187.75;;;10.32;78.83
74633;BME280;63139;52.018;8.552;2022-12-29T10:07:03;99174.75;;;10.37;78.33
74633;BME280;63139;52.018;8.552;2022-12-29T10:10:02;99198.97;;;10.41;75.80
74633;BME280;63139;52.018;8.552;2022-12-29T10:12:39;99193.06;;;10.39;76.89
74633;BME280;63139;52.018;8.552;2022-12-29T10:15:29;99205.28;;;10.40;74.68
74633;BME280;63139;52.018;8.552;2022-12-29T10:18:11;99200.28;;;10.78;75.02
74633;BME280;63139;52.018;8.552;2022-12-29T10:20:48;99196.47;;;11.20;73.67
74633;BME280;63139;52.018;8.552;2022-12-29T10:23:27;99207.06;;;11.13;72.51
74633;BME280;63139;52.018;8.552;2022-12-29T10:25:58;99206.44;;;10.98;75.30
74633;BME280;63139;52.018;8.552;2022-12-29T10:28:34;99196.25;;;10.88;74.86
74633;BME280;63139;52.018;8.552;2022-12-29T10:31:05;99187.06;;;10.71;74.55
74633;BME280;63139;52.018;8.552;2022-12-29T10:33:39;99196.84;;;10.77;73.95
74633;BME280;63139;52.018;8.552;2022-12-29T10:36:15;99177.69;;;10.82;74.28
74633;BME280;63139;52.018;8.552;2022-12-29T10:38:51;99195.84;;;10.92;73.06
74633;BME280;63139;52.018;8.552;2022-12-29T10:41:25;99194.63;;;10.94;74.12
74633;BME280;63139;52.018;8.552;2022-12-29T10:43:54;99183.59;;;10.97;74.41
74633;BME280;63139;52.018;8.552;2022-12-29T10:46:27;99201.13;;;11.05;73.75
74633;BME280;63139;52.018;8.552;2022-12-29T10:48:56;99194.63;;;11.20;73.50
74633;BME280;63139;52.018;8.552;2022-12-29T10:51:26;99196.44;;;11.26;73.17
74633;BME280;63139;52.018;8.552;2022-12-29T10:54:00;99193.59;;;11.35;72.28
74633;BME280;63139;52.018;8.552;2022-12-29T10:56:34;99192.59;;;11.36;71.66
74633;BME280;63139;52.018;8.552;2022-12-29T10:59:12;99185.84;;;11.26;69.11
74633;BME280;63139;52.018;8.552;2022-12-29T11:01:46;99186.28;;;11.30;69.97
74633;BME280;63139;52.018;8.552;2022-12-29T11:04:28;99176.88;;;11.34;70.18
74633;BME280;63139;52.018;8.552;2022-12-29T11:07:03;99187.91;;;11.44;71.17
74633;BME280;63139;52.018;8.552;2022-12-29T11:09:43;99176.66;;;11.49;67.38
74633;BME280;63139;52.018;8.552;2022-12-29T11:12:19;99193.81;;;11.53;68.85
74633;BME280;63139;52.018;8.552;2022-12-29T11:14:47;99180.13;;;11.49;68.04
74633;BME280;63139;52.018;8.552;2022-12-29T11:17:16;99187.91;;;11.44;68.76
74633;BME280;63139;52.018;8.552;2022-12-29T11:19:44;99194.63;;;11.40;68.74
74633;BME280;63139;52.018;8.552;2022-12-29T11:22:19;99185.44;;;11.36;69.29
74633;BME280;63139;52.018;8.552;2022-12-29T11:24:51;99176.28;;;11.39;68.76
74633;BME280;63139;52.018;8.552;2022-12-29T11:27:21;99182.81;;;11.36;69.56
74633;BME280;63139;52.018;8.552;2022-12-29T11:29:50;99196.06;;;11.29;69.45
74633;BME280;63139;52.018;8.552;2022-12-29T11:32:20;99198.31;;;11.26;69.54
74633;BME280;63139;52.018;8.552;2022-12-29T11:34:54;99201.97;;;11.25;70.26
74633;BME280;63139;52.018;8.552;2022-12-29T11:37:28;99183.63;;;11.23;69.14
74633;BME280;63139;52.018;8.552;2022-12-29T11:39:59;99194.63;;;11.27;69.88
74633;BME280;63139;52.018;8.552;2022-12-29T11:42:35;99209.09;;;11.24;69.97
74633;BME280;63139;52.018;8.552;2022-12-29T11:45:05;99205.84;;;11.22;68.88
74633;BME280;63139;52.018;8.552;2022-12-29T11:47:36;99209.50;;;11.21;69.37
74633;BME280;63139;52.018;8.552;2022-12-29T11:50:07;99205.22;;;11.27;69.60
74633;BME280;63139;52.018;8.552;2022-12-29T11:52:36;99206.66;;;11.36;69.92
74633;BME280;63139;52.018;8.552;2022-12-29T11:55:17;99191.19;;;11.33;68.74
74633;BME280;63139;52.018;8.552;2022-12-29T11:57:46;99198.91;;;11.28;69.33
74633;BME280;63139;52.018;8.552;2022-12-29T12:00:16;99207.28;;;11.25;68.88
74633;BME280;63139;52.018;8.552;2022-12-29T12:02:53;99200.34;;;11.24;68.97
74633;BME280;63139;52.018;8.552;2022-12-29T12:05:30;99198.31;;;11.26;68.52
74633;BME280;63139;52.018;8.552;2022-12-29T12:08:02;99195.88;;;11.24;68.96
74633;BME280;63139;52.018;8.552;2022-12-29T12:10:38;99204.41;;;11.20;67.37
74633;BME280;63139;52.018;8.552;2022-12-29T12:13:20;99208.88;;;11.19;67.95
74633;BME280;63139;52.018;8.552;2022-12-29T12:15:55;99209.09;;;11.18;68.74
74633;BME280;63139;52.018;8.552;2022-12-29T12:18:45;99210.72;;;11.12;67.15
74633;BME280;63139;52.018;8.552;2022-12-29T12:21:20;99210.31;;;11.09;66.58
74633;BME280;63139;52.018;8.552;2022-12-29T12:24:07;99217.44;;;11.08;67.36
74633;BME280;63139;52.018;8.552;2022-12-29T12:26:46;99216.84;;;11.13;66.88
74633;BME280;63139;52.018;8.552;2022-12-29T12:29:22;99221.53;;;11.11;67.16
74633;BME280;63139;52.018;8.552;2022-12-29T12:31:55;99215.44;;;11.10;67.73
74633;BME280;63139;52.018;8.552;2022-12-29T12:34:29;99225.78;;;11.12;66.41
74633;BME280;63139;52.018;8.552;2022-12-29T12:40:20;99232.13;;;11.17;66.00
74633;BME280;63139;52.018;8.552;2022-12-29T12:43:05;99243.56;;;11.18;65.25
74633;BME280;63139;52.018;8.552;2022-12-29T12:45:48;99231.13;;;11.18;66.36
74633;BME280;63139;52.018;8.552;2022-12-29T12:48:36;99233.34;;;11.21;65.93
74633;BME280;63139;52.018;8.552;2022-12-29T12:51:15;99252.09;;;11.20;66.63
74633;BME280;63139;52.018;8.552;2022-12-29T12:53:58;99244.38;;;11.18;66.53
74633;BME280;63139;52.018;8.552;2022-12-29T12:56:43;99253.91;;;11.19;66.34
74633;BME280;63139;52.018;8.552;2022-12-29T12:59:27;99241.50;;;11.20;65.58
74633;BME280;63139;52.018;8.552;2022-12-29T13:02:01;99254.97;;;11.18;65.88
74633;BME280;63139;52.018;8.552;2022-12-29T13:04:52;99271.06;;;11.17;64.98
74633;BME280;63139;52.018;8.552;2022-12-29T13:07:33;99261.88;;;11.19;65.13
74633;BME280;63139;52.018;8.552;2022-12-29T13:10:19;99273.09;;;11.21;65.47
74633;BME280;63139;52.018;8.552;2022-12-29T13:12:54;99275.53;;;11.16;64.77
74633;BME280;63139;52.018;8.552;2022-12-29T13:15:38;99282.88;;;11.21;66.13
74633;BME280;63139;52.018;8.552;2022-12-29T13:18:17;99284.09;;;11.18;66.17
74633;BME280;63139;52.018;8.552;2022-12-29T13:20:54;99291.44;;;11.16;65.33
74633;BME280;63139;52.018;8.552;2022-12-29T13:23:25;99295.72;;;11.17;64.99
74633;BME280;63139;52.018;8.552;2022-12-29T13:26:04;99301.00;;;11.17;65.99
74633;BME280;63139;52.018;8.552;2022-12-29T13:28:49;99299.56;;;11.15;65.61
74633;BME280;63139;52.018;8.552;2022-12-29T13:31:30;99303.66;;;11.11;65.27
74633;BME280;63139;52.018;8.552;2022-12-29T13:34:08;99292.84;;;11.12;65.85
74633;BME280;63139;52.018;8.552;2022-12-29T13:36:42;99302.03;;;11.10;66.46
74633;BME280;63139;52.018;8.552;2022-12-29T13:39:13;99318.91;;;11.09;67.32
74633;BME280;63139;52.018;8.552;2022-12-29T13:41:51;99320.75;;;11.08;67.20
74633;BME280;63139;52.018;8.552;2022-12-29T13:44:21;99322.16;;;11.04;67.35
74633;BME280;63139;52.018;8.552;2022-12-29T13:46:53;99332.53;;;10.99;68.02
74633;BME280;63139;52.018;8.552;2022-12-29T13:49:22;99322.94;;;10.98;68.63